Main page
METAR-TAF:

METAR-TAF

Airports :

Montichiari

Brescia, Italy

latitude: 45-24-02N, longitude: 010-18-59E, elevation: 104 m

Current weather observation

The report was made 1 hour and 7 minutes ago, at 22:50 UTC
Wind 10 kt from the West/Northwest
Temperature 21°C
Humidity 94%
Pressure 1013 hPa
Visibility 10 km or more
Broken clouds at a height of 3000 ft, Cumulonimbus.
thunderstorm, rain

METAR: LIPO 202250Z 30010KT 9999 TSRA BKN030CB 21/20 Q1013

Time: 01:57 (23:57 UTC)

Forecast

The report was made 57 minutes ago, at 23:00 UTC
Forecast valid from 21 at 00 UTC to 21 at 24 UTC
Wind 5 kt from variable directions
Visibility 10 km or more
Scattered clouds at a height of 5000 ft
Temporary
from 21 at 00 UTC to 21 at 06 UTC
thunderstorm, rain
Temporary
from 21 at 12 UTC to 21 at 21 UTC
thunderstorm, rain

TAF: LIPO 202300Z 2100/2124 VRB05KT 9999 SCT050 TEMPO 2100/2106 TSRA TEMPO 2112/2121 TSRA

Weather observations and forecasts of more than 4000 airports (METAR and TAF reports).

The available stations are represented by yellow and red dots on the map.

Hover mouse over dot to see the name of the station.

Then click to see weather observations and forecasts.

To change the map : click on the green buttons with a black cross to zoom in, on the green button with a dash to zoom out, or on the green arrows for adjacent maps.


METAR-TAF: